createdAt,value
2018-02-14T00:00:42.554Z,10.17
2018-02-14T00:03:10.128Z,9.57
2018-02-14T00:05:37.870Z,8.87
2018-02-14T00:08:05.345Z,9.27
2018-02-14T00:10:32.932Z,9.10
2018-02-14T00:13:00.528Z,8.93
2018-02-14T00:15:28.063Z,8.57
2018-02-14T00:17:55.607Z,8.93
2018-02-14T00:20:23.559Z,8.40
2018-02-14T00:22:51.125Z,8.23
2018-02-14T00:25:18.663Z,9.00
2018-02-14T00:27:46.210Z,8.67
2018-02-14T00:30:13.740Z,9.10
2018-02-14T00:32:41.271Z,9.10
2018-02-14T00:35:08.890Z,9.67
2018-02-14T00:37:36.476Z,8.70
2018-02-14T00:40:04.008Z,8.20
2018-02-14T00:42:31.622Z,8.87
2018-02-14T00:44:59.188Z,8.37
2018-02-14T00:47:27.524Z,8.00
2018-02-14T00:49:55.120Z,8.60
2018-02-14T00:52:22.665Z,8.73
2018-02-14T00:54:50.236Z,7.60
2018-02-14T00:57:18.593Z,8.80
2018-02-14T00:59:46.924Z,7.97
2018-02-14T01:02:14.496Z,7.10
2018-02-14T01:04:42.816Z,7.27
2018-02-14T01:07:10.318Z,7.37
2018-02-14T01:09:38.606Z,8.03
2018-02-14T01:12:06.419Z,7.53
2018-02-14T01:14:33.963Z,8.07
2018-02-14T01:17:01.585Z,7.07
2018-02-14T01:19:36.282Z,7.57
2018-02-14T01:22:03.814Z,8.60
2018-02-14T01:24:31.346Z,8.30
2018-02-14T01:26:58.941Z,7.80
2018-02-14T01:29:27.242Z,7.33
2018-02-14T01:31:54.775Z,8.40
2018-02-14T01:34:22.339Z,7.70
2018-02-14T01:36:49.912Z,8.00
2018-02-14T01:39:17.486Z,7.70
2018-02-14T01:41:45.093Z,7.40
2018-02-14T01:44:12.667Z,7.80
2018-02-14T01:46:40.978Z,7.83
2018-02-14T01:49:08.717Z,7.80
2018-02-14T01:51:36.276Z,8.10
2018-02-14T01:54:03.753Z,8.40
2018-02-14T01:56:31.437Z,7.90
2018-02-14T01:58:59.008Z,8.17
2018-02-14T02:01:26.580Z,9.00
2018-02-14T02:03:54.548Z,8.57
2018-02-14T02:06:22.860Z,8.73
2018-02-14T02:08:50.402Z,8.73
2018-02-14T02:11:17.967Z,8.53
2018-02-14T02:13:45.507Z,8.63
2018-02-14T02:16:13.830Z,8.67
2018-02-14T02:18:41.423Z,9.20
2018-02-14T02:21:09.022Z,9.00
2018-02-14T02:23:36.609Z,8.70
2018-02-14T02:26:04.191Z,9.00
2018-02-14T02:28:32.525Z,7.90
2018-02-14T02:31:00.093Z,8.63
2018-02-14T02:33:28.615Z,7.73
2018-02-14T02:35:56.159Z,8.00
2018-02-14T02:38:23.733Z,8.20
2018-02-14T02:40:52.308Z,9.00
2018-02-14T02:43:20.648Z,8.40
2018-02-14T02:45:48.187Z,8.77
2018-02-14T02:48:15.887Z,8.60
2018-02-14T02:50:43.422Z,9.37
2018-02-14T02:53:10.994Z,9.90
2018-02-14T02:55:38.797Z,9.60
2018-02-14T02:58:07.108Z,9.83
2018-02-14T03:00:34.797Z,9.00
2018-02-14T03:03:03.218Z,9.77
2018-02-14T03:05:30.786Z,9.93
2018-02-14T03:07:58.336Z,9.93
2018-02-14T03:10:25.902Z,10.50
2018-02-14T03:12:54.245Z,11.37
2018-02-14T03:15:21.794Z,10.13
2018-02-14T03:17:49.403Z,10.53
2018-02-14T03:20:16.943Z,10.17
2018-02-14T03:22:44.666Z,10.30
2018-02-14T03:25:12.353Z,10.63
2018-02-14T03:27:39.934Z,10.33
2018-02-14T03:30:08.261Z,11.40
2018-02-14T03:32:35.872Z,10.00
2018-02-14T03:35:03.440Z,10.47
2018-02-14T03:37:30.977Z,10.60
2018-02-14T03:39:58.748Z,9.77
2018-02-14T03:42:26.286Z,9.40
2018-02-14T03:44:53.862Z,9.57
2018-02-14T03:47:22.279Z,9.83
2018-02-14T03:49:49.819Z,8.80
2018-02-14T03:52:17.391Z,9.53
2018-02-14T03:54:45.176Z,9.63
2018-02-14T03:57:13.523Z,9.33
2018-02-14T03:59:41.877Z,8.83
2018-02-14T04:02:09.545Z,8.37
2018-02-14T04:04:37.894Z,8.50
2018-02-14T04:07:06.236Z,8.37
2018-02-14T04:09:33.802Z,7.97
2018-02-14T04:12:02.099Z,8.03
2018-02-14T04:14:29.642Z,8.80
2018-02-14T04:16:57.668Z,7.80
2018-02-14T04:19:26.006Z,8.03
2018-02-14T04:21:53.547Z,7.93
2018-02-14T04:24:21.240Z,7.77
2018-02-14T04:26:48.717Z,9.10
2018-02-14T04:29:16.293Z,8.90
2018-02-14T04:31:43.899Z,9.13
2018-02-14T04:34:12.182Z,8.27
2018-02-14T04:36:39.742Z,8.97
2018-02-14T04:39:08.204Z,8.27
2018-02-14T04:41:35.747Z,9.57
2018-02-14T04:44:03.280Z,9.03
2018-02-14T04:46:31.223Z,9.70
2018-02-14T04:48:58.796Z,9.67
2018-02-14T04:51:27.105Z,9.60
2018-02-14T04:53:54.984Z,9.87
2018-02-14T04:56:22.568Z,9.80
2018-02-14T04:58:50.111Z,10.17
2018-02-14T05:01:17.752Z,11.47
2018-02-14T05:03:46.093Z,11.60
2018-02-14T05:06:13.639Z,11.47
2018-02-14T05:08:41.412Z,12.53
2018-02-14T05:11:08.955Z,11.63
2018-02-14T05:13:36.528Z,10.57
2018-02-14T05:16:04.104Z,10.47
2018-02-14T05:18:31.690Z,9.80
2018-02-14T05:20:59.243Z,9.70
2018-02-14T05:23:27.080Z,10.47
2018-02-14T05:25:54.672Z,9.80
2018-02-14T05:28:22.247Z,11.00
2018-02-14T05:30:49.812Z,10.23
2018-02-14T05:33:18.164Z,10.27
2018-02-14T05:35:46.512Z,9.23
2018-02-14T05:38:14.218Z,10.63
2018-02-14T05:40:41.755Z,10.00
2018-02-14T05:43:09.340Z,10.60
2018-02-14T05:45:36.948Z,10.37
2018-02-14T05:48:04.536Z,10.33
2018-02-14T05:50:32.104Z,9.53
2018-02-14T05:53:00.715Z,9.40
2018-02-14T05:55:28.284Z,8.47
2018-02-14T05:57:55.860Z,8.43
2018-02-14T06:00:23.518Z,9.00
2018-02-14T06:02:51.096Z,8.93
2018-02-14T06:05:18.884Z,7.93
2018-02-14T06:07:47.276Z,9.10
2018-02-14T06:10:14.847Z,8.63
2018-02-14T06:12:42.416Z,8.33
2018-02-14T06:15:10.196Z,8.47
2018-02-14T06:17:38.542Z,8.87
2018-02-14T06:20:06.056Z,9.90
2018-02-14T06:22:33.624Z,9.67
2018-02-14T06:25:01.179Z,10.52
2018-02-14T06:27:28.722Z,8.53
2018-02-14T06:29:57.055Z,8.67
2018-02-14T06:32:24.640Z,8.13
2018-02-14T06:34:52.950Z,8.10
2018-02-14T06:37:20.744Z,8.33
2018-02-14T06:39:49.072Z,9.33
2018-02-14T06:42:16.615Z,11.23
2018-02-14T06:44:44.325Z,11.77
2018-02-14T06:47:11.880Z,10.80
2018-02-14T06:49:39.468Z,8.97
2018-02-14T06:52:07.319Z,10.23
2018-02-14T06:54:34.835Z,9.33
2018-02-14T06:57:02.402Z,9.50
2018-02-14T06:59:30.022Z,9.53
2018-02-14T07:01:57.597Z,9.53
2018-02-14T07:04:25.127Z,9.83
2018-02-14T07:06:52.695Z,9.27
2018-02-14T07:09:21.012Z,10.00
2018-02-14T07:11:48.585Z,10.67
2018-02-14T07:14:16.188Z,11.07
2018-02-14T07:16:43.775Z,11.53
2018-02-14T07:19:11.352Z,13.43
2018-02-14T07:21:39.666Z,14.77
2018-02-14T07:24:07.203Z,13.50
2018-02-14T07:26:34.791Z,14.20
2018-02-14T07:29:03.146Z,14.63
2018-02-14T07:31:31.488Z,14.63
2018-02-14T07:33:59.036Z,15.57
2018-02-14T07:36:26.960Z,16.27
2018-02-14T07:38:54.524Z,15.90
2018-02-14T07:41:22.101Z,14.93
2018-02-14T07:43:50.443Z,12.70
2018-02-14T07:46:17.987Z,10.00
2018-02-14T07:48:45.467Z,9.37
2018-02-14T07:51:13.300Z,9.20
2018-02-14T07:53:41.628Z,9.80
2018-02-14T07:56:09.200Z,9.20
2018-02-14T07:58:37.738Z,8.70
2018-02-14T08:01:06.085Z,8.93
2018-02-14T08:03:33.628Z,10.57
2018-02-14T08:06:01.289Z,11.53
2018-02-14T08:08:28.835Z,11.73
2018-02-14T08:10:56.379Z,12.77
2018-02-14T08:13:23.959Z,11.23
2018-02-14T08:15:52.283Z,10.40
2018-02-14T08:18:19.867Z,9.97
2018-02-14T08:20:48.287Z,9.33
2018-02-14T08:23:15.917Z,9.80
2018-02-14T08:25:43.492Z,9.20
2018-02-14T08:28:11.343Z,8.70
2018-02-14T08:30:38.933Z,8.97
2018-02-14T08:33:06.471Z,9.30
2018-02-14T08:35:34.175Z,8.63
2018-02-14T08:38:01.745Z,8.80
2018-02-14T08:40:30.055Z,8.40
2018-02-14T08:42:58.329Z,9.97
2018-02-14T08:45:25.901Z,9.23
2018-02-14T08:47:54.208Z,8.83
2018-02-14T08:50:21.804Z,8.97
2018-02-14T08:52:49.342Z,9.30
2018-02-14T08:55:16.875Z,8.70
2018-02-14T08:57:44.852Z,9.50
2018-02-14T09:00:13.210Z,10.17
2018-02-14T09:02:40.690Z,10.10
2018-02-14T09:05:08.508Z,9.40
2018-02-14T09:07:36.850Z,10.27
2018-02-14T09:10:04.389Z,10.40
2018-02-14T09:12:31.966Z,9.80
2018-02-14T09:15:00.260Z,10.43
2018-02-14T09:17:27.812Z,11.97
2018-02-14T09:19:55.438Z,11.63
2018-02-14T09:22:23.013Z,12.70
2018-02-14T09:24:50.588Z,12.43
2018-02-14T09:27:18.956Z,13.73
2018-02-14T09:29:47.259Z,14.37
2018-02-14T09:32:14.839Z,15.40
2018-02-14T09:34:42.445Z,15.93
2018-02-14T09:37:10.036Z,16.30
2018-02-14T09:39:37.612Z,16.17
2018-02-14T09:42:05.948Z,15.17
2018-02-14T09:44:33.486Z,15.60
2018-02-14T09:47:01.035Z,17.60
2018-02-14T09:49:28.581Z,17.60
2018-02-14T09:51:56.049Z,17.27
2018-02-14T09:54:24.426Z,17.40
2018-02-14T09:56:52.153Z,18.20
2018-02-14T09:59:20.483Z,20.07
2018-02-14T10:01:48.056Z,19.70
2018-02-14T10:04:15.896Z,19.90
2018-02-14T10:06:43.483Z,18.87
2018-02-14T10:09:11.047Z,19.80
2018-02-14T10:11:38.627Z,19.30
2018-02-14T10:14:06.953Z,20.23
2018-02-14T10:16:34.524Z,19.20
2018-02-14T10:19:02.242Z,19.93
2018-02-14T10:21:29.754Z,20.13
2018-02-14T10:23:57.316Z,20.90
2018-02-14T10:26:24.886Z,20.10
2018-02-14T10:28:52.461Z,19.77
2018-02-14T10:31:20.800Z,20.73
2018-02-14T10:33:48.367Z,20.97
2018-02-14T10:36:16.710Z,20.77
2018-02-14T10:38:44.258Z,20.00
2018-02-14T10:41:11.903Z,19.70
2018-02-14T10:43:39.471Z,21.23
2018-02-14T10:46:07.776Z,22.17
2018-02-14T10:48:35.423Z,21.77
2018-02-14T10:51:03.779Z,21.03
2018-02-14T10:53:31.311Z,21.00
2018-02-14T10:55:58.909Z,20.10
2018-02-14T10:58:26.484Z,23.87
2018-02-14T11:00:59.659Z,20.53
2018-02-14T11:03:32.838Z,20.37
2018-02-14T11:06:06.015Z,21.27
2018-02-14T11:08:33.690Z,21.90
2018-02-14T11:11:01.229Z,20.97
2018-02-14T11:13:28.801Z,22.17
2018-02-14T11:15:56.692Z,19.83
2018-02-14T11:18:24.273Z,18.90
2018-02-14T11:20:51.845Z,19.83
2018-02-14T11:23:19.491Z,19.40
2018-02-14T11:25:47.039Z,20.57
2018-02-14T11:28:14.612Z,21.57
2018-02-14T11:30:42.279Z,20.53
2018-02-14T11:33:09.857Z,20.90
2018-02-14T11:35:37.358Z,21.47
2018-02-14T11:38:04.853Z,19.93
2018-02-14T11:40:32.444Z,19.60
2018-02-14T11:42:59.979Z,20.60
2018-02-14T11:45:27.883Z,19.40
2018-02-14T11:47:55.410Z,19.47
2018-02-14T11:50:22.985Z,18.53
2018-02-14T11:52:50.728Z,19.10
2018-02-14T11:55:18.260Z,20.77
2018-02-14T11:57:46.594Z,17.93
2018-02-14T12:00:14.346Z,18.43
2018-02-14T12:02:41.867Z,18.30
2018-02-14T12:05:09.432Z,16.70
2018-02-14T12:07:37.208Z,18.50
2018-02-14T12:10:04.755Z,16.03
2018-02-14T12:12:32.279Z,14.83
2018-02-14T12:15:00.051Z,16.40
2018-02-14T12:17:27.590Z,14.53
2018-02-14T12:19:55.161Z,15.07
2018-02-14T12:22:23.521Z,13.83
2018-02-14T12:24:51.860Z,14.30
2018-02-14T12:27:19.395Z,14.60
2018-02-14T12:29:46.996Z,15.17
2018-02-14T12:32:14.748Z,15.13
2018-02-14T12:34:42.298Z,14.93
2018-02-14T12:37:10.088Z,15.50
2018-02-14T12:39:37.668Z,15.97
2018-02-14T12:42:05.966Z,16.00
2018-02-14T12:44:33.843Z,16.00
2018-02-14T12:47:01.420Z,15.70
2018-02-14T12:49:28.967Z,15.60
2018-02-14T12:51:57.296Z,14.43
2018-02-14T12:54:24.834Z,15.83
2018-02-14T12:56:52.401Z,16.53
2018-02-14T12:59:20.774Z,16.00
2018-02-14T13:01:49.118Z,15.40
2018-02-14T13:04:16.593Z,16.17
2018-02-14T13:06:44.343Z,16.40
2018-02-14T13:09:11.856Z,16.10
2018-02-14T13:11:39.391Z,16.10
2018-02-14T13:14:06.996Z,16.43
2018-02-14T13:16:34.564Z,16.47
2018-02-14T13:19:02.107Z,15.83
2018-02-14T13:21:29.679Z,16.23
2018-02-14T13:23:58.024Z,16.93
2018-02-14T13:26:25.567Z,16.80
2018-02-14T13:28:53.176Z,16.27
2018-02-14T13:31:20.720Z,15.70
2018-02-14T13:33:48.301Z,15.10
2018-02-14T13:36:15.859Z,15.80
2018-02-14T13:38:43.433Z,14.07
2018-02-14T13:41:10.971Z,14.53
2018-02-14T13:43:38.580Z,14.43
2018-02-14T13:46:06.114Z,14.93
2018-02-14T13:48:34.419Z,15.00
2018-02-14T13:51:02.022Z,14.60
2018-02-14T13:53:30.358Z,15.23
2018-02-14T13:55:57.891Z,14.97
2018-02-14T13:58:25.576Z,13.90
2018-02-14T14:00:53.916Z,15.00
2018-02-14T14:03:21.467Z,13.90
2018-02-14T14:05:49.925Z,15.30
2018-02-14T14:08:17.452Z,15.10
2018-02-14T14:10:45.025Z,14.97
2018-02-14T14:13:13.404Z,14.63
2018-02-14T14:15:40.966Z,15.20
2018-02-14T14:18:08.507Z,14.73
2018-02-14T14:20:36.083Z,14.77
2018-02-14T14:23:03.649Z,13.80
2018-02-14T14:25:31.180Z,13.43
2018-02-14T14:27:58.755Z,14.03
2018-02-14T14:30:26.315Z,14.57
2018-02-14T14:32:53.848Z,13.90
2018-02-14T14:35:22.171Z,13.67
2018-02-14T14:37:49.696Z,13.63
2018-02-14T14:40:17.211Z,13.00
2018-02-14T14:42:45.149Z,13.70
2018-02-14T14:45:13.484Z,13.47
2018-02-14T14:47:40.990Z,13.47
2018-02-14T14:50:08.676Z,12.53
2018-02-14T14:52:36.160Z,12.57
2018-02-14T14:55:03.696Z,13.97
2018-02-14T14:57:31.268Z,12.57
2018-02-14T14:59:58.798Z,12.53
2018-02-14T15:02:26.340Z,12.77
2018-02-14T15:04:53.995Z,12.87
2018-02-14T15:07:21.576Z,12.30
2018-02-14T15:09:49.374Z,12.13
2018-02-14T15:12:16.910Z,12.53
2018-02-14T15:14:45.203Z,12.20
2018-02-14T15:17:12.778Z,11.30
2018-02-14T15:19:40.380Z,11.87
2018-02-14T15:22:08.812Z,11.53
2018-02-14T15:24:36.343Z,11.40
2018-02-14T15:27:04.237Z,11.43
2018-02-14T15:29:32.571Z,12.77
2018-02-14T15:32:00.107Z,11.23
2018-02-14T15:34:28.075Z,12.77
2018-02-14T15:36:56.420Z,12.93
2018-02-14T15:39:24.068Z,13.73
2018-02-14T15:41:51.696Z,15.37
2018-02-14T15:44:19.267Z,14.77
2018-02-14T15:46:46.849Z,17.17
2018-02-14T15:49:14.504Z,14.70
2018-02-14T15:51:42.035Z,14.43
2018-02-14T15:54:09.641Z,12.77
2018-02-14T15:56:37.250Z,11.37
2018-02-14T15:59:04.855Z,12.20
2018-02-14T16:01:32.429Z,12.07
2018-02-14T16:04:00.009Z,12.90
2018-02-14T16:06:27.547Z,12.20
2018-02-14T16:08:55.321Z,12.30
2018-02-14T16:11:22.887Z,12.93
2018-02-14T16:13:51.198Z,12.13
2018-02-14T16:16:18.735Z,11.97
2018-02-14T16:18:46.415Z,12.30
2018-02-14T16:21:13.990Z,12.07
2018-02-14T16:23:42.300Z,12.23
2018-02-14T16:26:09.870Z,12.80
2018-02-14T16:28:37.404Z,14.93
2018-02-14T16:31:04.938Z,14.37
2018-02-14T16:33:32.514Z,20.90
2018-02-14T16:36:00.828Z,20.10
2018-02-14T16:38:28.379Z,18.20
2018-02-14T16:40:55.989Z,18.97
2018-02-14T16:43:23.574Z,17.67
2018-02-14T16:45:51.912Z,15.63
2018-02-14T16:48:19.512Z,13.60
2018-02-14T16:50:46.990Z,14.07
2018-02-14T16:53:15.321Z,13.87
2018-02-14T16:55:42.903Z,14.40
2018-02-14T16:58:10.443Z,13.93
2018-02-14T17:00:37.971Z,14.90
2018-02-14T17:03:05.532Z,15.40
2018-02-14T17:05:33.115Z,14.00
2018-02-14T17:08:00.716Z,15.17
2018-02-14T17:10:28.321Z,14.80
2018-02-14T17:12:55.892Z,15.30
2018-02-14T17:15:23.440Z,14.33
2018-02-14T17:17:51.007Z,14.30
2018-02-14T17:20:19.343Z,14.33
2018-02-14T17:22:46.893Z,13.93
2018-02-14T17:25:14.547Z,15.87
2018-02-14T17:27:42.092Z,14.73
2018-02-14T17:30:10.440Z,14.40
2018-02-14T17:32:38.425Z,14.57
2018-02-14T17:35:05.975Z,14.13
2018-02-14T17:37:33.511Z,14.13
2018-02-14T17:40:02.039Z,14.47
2018-02-14T17:42:29.579Z,14.30
2018-02-14T17:44:57.111Z,16.40
2018-02-14T17:47:24.867Z,15.90
2018-02-14T17:49:52.399Z,16.50
2018-02-14T17:52:19.969Z,15.83
2018-02-14T17:54:47.485Z,15.93
2018-02-14T17:57:14.990Z,15.80
2018-02-14T17:59:43.292Z,15.73
2018-02-14T18:02:10.887Z,15.53
2018-02-14T18:04:39.228Z,17.37
2018-02-14T18:07:06.800Z,18.57
2018-02-14T18:09:35.456Z,17.30
2018-02-14T18:12:03.804Z,16.53
2018-02-14T18:14:31.385Z,15.60
2018-02-14T18:16:59.021Z,14.60
2018-02-14T18:19:26.608Z,15.07
2018-02-14T18:21:54.156Z,14.43
2018-02-14T18:24:21.816Z,15.23
2018-02-14T18:26:49.360Z,16.23
2018-02-14T18:29:16.931Z,16.00
2018-02-14T18:31:45.412Z,15.47
2018-02-14T18:34:12.998Z,15.37
2018-02-14T18:36:40.539Z,13.93
2018-02-14T18:39:08.109Z,14.77
2018-02-14T18:41:35.680Z,15.17
2018-02-14T18:44:03.992Z,14.10
2018-02-14T18:46:31.620Z,14.70
2018-02-14T18:48:59.217Z,14.00
2018-02-14T18:51:27.510Z,14.17
2018-02-14T18:53:55.164Z,13.20
2018-02-14T18:56:22.745Z,14.27
2018-02-14T18:58:50.430Z,15.10
2018-02-14T19:01:18.339Z,13.17
2018-02-14T19:03:45.887Z,11.03
2018-02-14T19:06:14.142Z,11.17
2018-02-14T19:08:42.040Z,10.23
2018-02-14T19:11:10.386Z,12.23
2018-02-14T19:13:38.697Z,12.73
2018-02-14T19:16:06.352Z,12.80
2018-02-14T19:18:33.857Z,12.30
2018-02-14T19:21:02.159Z,11.87
2018-02-14T19:23:29.861Z,12.50
2018-02-14T19:25:57.407Z,14.87
2018-02-14T19:28:24.997Z,15.03
2018-02-14T19:30:52.568Z,13.20
2018-02-14T19:33:20.146Z,12.27
2018-02-14T19:35:47.629Z,13.13
2018-02-14T19:38:15.316Z,13.57
2018-02-14T19:40:43.760Z,13.27
2018-02-14T19:43:11.296Z,12.80
2018-02-14T19:45:39.248Z,12.97
2018-02-14T19:48:06.732Z,12.90
2018-02-14T19:50:35.072Z,13.23
2018-02-14T19:53:02.643Z,10.87
2018-02-14T19:55:30.225Z,11.67
2018-02-14T19:57:57.806Z,12.63
2018-02-14T20:00:26.392Z,12.20
2018-02-14T20:02:54.736Z,12.37
2018-02-14T20:05:22.210Z,12.73
2018-02-14T20:07:49.805Z,13.23
2018-02-14T20:10:17.384Z,13.70
2018-02-14T20:12:45.728Z,16.07
2018-02-14T20:15:13.339Z,24.50
2018-02-14T20:17:40.916Z,22.27
2018-02-14T20:20:08.457Z,16.77
2018-02-14T20:22:36.060Z,12.90
2018-02-14T20:25:03.615Z,13.63
2018-02-14T20:27:31.159Z,12.83
2018-02-14T20:29:58.957Z,13.60
2018-02-14T20:32:27.287Z,16.70
2018-02-14T20:34:54.868Z,13.37
2018-02-14T20:37:22.451Z,12.27
2018-02-14T20:39:49.999Z,11.63
2018-02-14T20:42:17.552Z,11.93
2018-02-14T20:44:45.167Z,12.33
2018-02-14T20:47:12.768Z,12.37
2018-02-14T20:49:40.246Z,11.47
2018-02-14T20:52:08.099Z,11.50
2018-02-14T20:54:35.619Z,11.37
2018-02-14T20:57:03.987Z,10.93
2018-02-14T20:59:32.519Z,11.07
2018-02-14T21:02:00.096Z,11.23
2018-02-14T21:04:28.405Z,10.83
2018-02-14T21:06:56.053Z,11.10
2018-02-14T21:09:23.604Z,11.60
2018-02-14T21:11:51.147Z,11.93
2018-02-14T21:14:18.909Z,10.80
2018-02-14T21:16:46.500Z,10.63
2018-02-14T21:19:14.077Z,10.40
2018-02-14T21:21:42.435Z,10.80
2018-02-14T21:24:09.960Z,10.10
2018-02-14T21:26:38.238Z,10.90
2018-02-14T21:29:06.047Z,10.30
2018-02-14T21:31:34.392Z,11.00
2018-02-14T21:34:01.935Z,10.93
2018-02-14T21:36:30.272Z,11.07
2018-02-14T21:38:57.857Z,12.57
2018-02-14T21:41:26.200Z,11.23
2018-02-14T21:43:53.779Z,14.17
2018-02-14T21:46:21.257Z,14.40
2018-02-14T21:48:48.778Z,13.33
2018-02-14T21:51:16.464Z,13.27
2018-02-14T21:53:44.004Z,13.70
2018-02-14T21:56:11.588Z,13.80
2018-02-14T21:58:39.166Z,13.80
2018-02-14T22:01:06.704Z,11.73
2018-02-14T22:03:34.252Z,12.20
2018-02-14T22:06:02.108Z,14.50
2018-02-14T22:08:29.652Z,15.20
2018-02-14T22:10:57.218Z,14.93
2018-02-14T22:13:24.906Z,13.20
2018-02-14T22:15:53.211Z,13.77
2018-02-14T22:18:20.800Z,12.33
2018-02-14T22:20:49.150Z,12.67
2018-02-14T22:23:16.687Z,11.90
2018-02-14T22:25:44.269Z,12.20
2018-02-14T22:28:11.880Z,11.67
2018-02-14T22:30:39.423Z,14.10
2018-02-14T22:33:07.004Z,14.97
2018-02-14T22:35:34.832Z,13.40
2018-02-14T22:38:02.387Z,14.73
2018-02-14T22:40:29.965Z,16.03
2018-02-14T22:42:57.514Z,16.40
2018-02-14T22:45:25.336Z,15.13
2018-02-14T22:47:52.922Z,15.40
2018-02-14T22:50:20.525Z,13.93
2018-02-14T22:52:48.067Z,14.77
2018-02-14T22:55:15.647Z,15.57
2018-02-14T22:57:43.323Z,14.13
2018-02-14T23:00:10.854Z,15.00
2018-02-14T23:02:38.379Z,16.30
2018-02-14T23:05:06.831Z,15.43
2018-02-14T23:07:34.382Z,15.13
2018-02-14T23:10:01.961Z,16.30
2018-02-14T23:12:29.667Z,15.87
2018-02-14T23:14:57.202Z,15.37
2018-02-14T23:17:24.785Z,15.40
2018-02-14T23:19:52.383Z,15.83
2018-02-14T23:22:19.963Z,16.10
2018-02-14T23:24:47.553Z,15.87
2018-02-14T23:27:16.080Z,16.60
2018-02-14T23:29:43.623Z,16.10
2018-02-14T23:32:11.180Z,15.27
2018-02-14T23:34:38.957Z,17.67
2018-02-14T23:37:07.258Z,16.87
2018-02-14T23:39:34.832Z,17.93
2018-02-14T23:42:02.487Z,16.70
2018-02-14T23:44:30.027Z,16.40
2018-02-14T23:46:57.621Z,17.03
2018-02-14T23:49:26.240Z,16.53
2018-02-14T23:51:53.717Z,15.83
2018-02-14T23:54:21.299Z,16.73
2018-02-14T23:56:49.093Z,15.97
2018-02-14T23:59:17.430Z,15.53
